LFEP weather

Pouilly Maconge Airport
Pouilly, Burgundy, France

Public forecast

Using degrees Celsius for public forecast. Weather courtesy of forecast.io.

METAR (pilot weather report)

Closest report is Dijon-Bourgogne Airport, 21.7 nm (40.3 km) E. Retrieved 2019/07/23 07:30 UTC (0 seconds ago):

LFSD 230730Z AUTO 02006KT CAVOK 25/13 Q1020

TAF (pilot weather forecast)

Forecast is more than 12 hours old.

Closest forecast is Dijon-Bourgogne Airport, 21.7 nm (40.3 km) E. Retrieved 2015/06/01 00:11 UTC (4 years ago):

TAF LFSD 010600Z 0100/0124 CNL